sensor_id;sensor_type;location;lat;lon;timestamp;P1;durP1;ratioP1;P2;durP2;ratioP2
20802;SDS011;10562;-33.856;151.182;2023-02-01T00:01:07;3.78;;;1.20;;
20802;SDS011;10562;-33.856;151.182;2023-02-01T00:03:38;3.88;;;1.20;;
20802;SDS011;10562;-33.856;151.182;2023-02-01T00:06:09;3.05;;;1.35;;
20802;SDS011;10562;-33.856;151.182;2023-02-01T00:08:40;7.63;;;1.40;;
20802;SDS011;10562;-33.856;151.182;2023-02-01T00:11:11;7.38;;;1.40;;
20802;SDS011;10562;-33.856;151.182;2023-02-01T00:13:43;5.78;;;1.50;;
20802;SDS011;10562;-33.856;151.182;2023-02-01T00:16:16;5.00;;;1.45;;
20802;SDS011;10562;-33.856;151.182;2023-02-01T00:18:47;7.80;;;1.65;;
20802;SDS011;10562;-33.856;151.182;2023-02-01T00:21:20;4.20;;;1.30;;
20802;SDS011;10562;-33.856;151.182;2023-02-01T00:23:51;4.75;;;1.48;;
20802;SDS011;10562;-33.856;151.182;2023-02-01T00:26:22;5.13;;;1.45;;
20802;SDS011;10562;-33.856;151.182;2023-02-01T00:28:58;7.20;;;1.73;;
20802;SDS011;10562;-33.856;151.182;2023-02-01T00:31:31;7.50;;;1.60;;
20802;SDS011;10562;-33.856;151.182;2023-02-01T00:34:02;5.32;;;1.40;;
20802;SDS011;10562;-33.856;151.182;2023-02-01T00:36:33;5.13;;;1.60;;
20802;SDS011;10562;-33.856;151.182;2023-02-01T00:39:04;3.80;;;1.40;;
20802;SDS011;10562;-33.856;151.182;2023-02-01T00:41:35;5.38;;;1.65;;
20802;SDS011;10562;-33.856;151.182;2023-02-01T00:44:06;6.47;;;1.30;;
20802;SDS011;10562;-33.856;151.182;2023-02-01T00:46:39;3.85;;;1.30;;
20802;SDS011;10562;-33.856;151.182;2023-02-01T00:49:09;5.00;;;1.05;;
20802;SDS011;10562;-33.856;151.182;2023-02-01T00:51:40;5.47;;;1.40;;
20802;SDS011;10562;-33.856;151.182;2023-02-01T00:54:11;5.78;;;1.60;;
20802;SDS011;10562;-33.856;151.182;2023-02-01T00:56:42;5.63;;;1.70;;
20802;SDS011;10562;-33.856;151.182;2023-02-01T00:59:13;4.25;;;1.15;;
20802;SDS011;10562;-33.856;151.182;2023-02-01T01:01:45;5.85;;;1.33;;
20802;SDS011;10562;-33.856;151.182;2023-02-01T01:04:16;3.95;;;1.30;;
20802;SDS011;10562;-33.856;151.182;2023-02-01T01:06:47;4.47;;;1.35;;
20802;SDS011;10562;-33.856;151.182;2023-02-01T01:09:17;5.90;;;1.60;;
20802;SDS011;10562;-33.856;151.182;2023-02-01T01:11:51;5.90;;;1.25;;
20802;SDS011;10562;-33.856;151.182;2023-02-01T01:14:21;5.28;;;1.40;;
20802;SDS011;10562;-33.856;151.182;2023-02-01T01:16:54;5.90;;;1.20;;
20802;SDS011;10562;-33.856;151.182;2023-02-01T01:19:25;4.70;;;1.20;;
20802;SDS011;10562;-33.856;151.182;2023-02-01T01:21:55;3.85;;;1.20;;
20802;SDS011;10562;-33.856;151.182;2023-02-01T01:24:26;6.53;;;1.40;;
20802;SDS011;10562;-33.856;151.182;2023-02-01T01:26:57;7.78;;;1.35;;
20802;SDS011;10562;-33.856;151.182;2023-02-01T01:29:28;4.13;;;1.48;;
20802;SDS011;10562;-33.856;151.182;2023-02-01T01:32:00;5.03;;;1.30;;
20802;SDS011;10562;-33.856;151.182;2023-02-01T01:34:31;3.28;;;0.90;;
20802;SDS011;10562;-33.856;151.182;2023-02-01T01:37:02;4.00;;;1.13;;
20802;SDS011;10562;-33.856;151.182;2023-02-01T01:39:32;4.15;;;1.30;;
20802;SDS011;10562;-33.856;151.182;2023-02-01T01:42:03;7.40;;;2.83;;
20802;SDS011;10562;-33.856;151.182;2023-02-01T01:47:29;8.18;;;2.28;;
20802;SDS011;10562;-33.856;151.182;2023-02-01T01:50:07;6.47;;;1.20;;
20802;SDS011;10562;-33.856;151.182;2023-02-01T01:52:39;5.28;;;2.38;;
20802;SDS011;10562;-33.856;151.182;2023-02-01T01:55:15;5.63;;;1.38;;
20802;SDS011;10562;-33.856;151.182;2023-02-01T01:57:50;7.80;;;1.20;;
20802;SDS011;10562;-33.856;151.182;2023-02-01T02:00:24;3.63;;;1.20;;
20802;SDS011;10562;-33.856;151.182;2023-02-01T02:02:58;4.78;;;1.30;;
20802;SDS011;10562;-33.856;151.182;2023-02-01T02:05:32;4.22;;;1.17;;
20802;SDS011;10562;-33.856;151.182;2023-02-01T02:08:03;5.60;;;1.30;;
20802;SDS011;10562;-33.856;151.182;2023-02-01T02:10:34;4.03;;;1.25;;
20802;SDS011;10562;-33.856;151.182;2023-02-01T02:13:22;4.93;;;1.20;;
20802;SDS011;10562;-33.856;151.182;2023-02-01T02:15:56;7.20;;;1.40;;
20802;SDS011;10562;-33.856;151.182;2023-02-01T02:18:55;8.13;;;1.52;;
20802;SDS011;10562;-33.856;151.182;2023-02-01T02:21:42;7.38;;;1.30;;
20802;SDS011;10562;-33.856;151.182;2023-02-01T02:24:30;3.85;;;1.40;;
20802;SDS011;10562;-33.856;151.182;2023-02-01T02:27:17;5.28;;;1.20;;
20802;SDS011;10562;-33.856;151.182;2023-02-01T02:33:18;3.55;;;1.02;;
20802;SDS011;10562;-33.856;151.182;2023-02-01T02:36:12;6.22;;;1.48;;
20802;SDS011;10562;-33.856;151.182;2023-02-01T02:38:53;4.35;;;1.23;;
20802;SDS011;10562;-33.856;151.182;2023-02-01T02:41:32;4.53;;;1.30;;
20802;SDS011;10562;-33.856;151.182;2023-02-01T02:44:24;3.53;;;1.20;;
20802;SDS011;10562;-33.856;151.182;2023-02-01T02:47:30;5.32;;;1.02;;
20802;SDS011;10562;-33.856;151.182;2023-02-01T02:50:08;3.78;;;1.10;;
20802;SDS011;10562;-33.856;151.182;2023-02-01T02:53:09;4.18;;;1.10;;
20802;SDS011;10562;-33.856;151.182;2023-02-01T02:55:59;4.32;;;1.08;;
20802;SDS011;10562;-33.856;151.182;2023-02-01T02:58:48;2.92;;;1.08;;
20802;SDS011;10562;-33.856;151.182;2023-02-01T03:01:35;3.60;;;1.27;;
20802;SDS011;10562;-33.856;151.182;2023-02-01T03:04:23;3.75;;;1.23;;
20802;SDS011;10562;-33.856;151.182;2023-02-01T03:06:55;8.93;;;1.50;;
20802;SDS011;10562;-33.856;151.182;2023-02-01T03:09:26;3.40;;;1.20;;
20802;SDS011;10562;-33.856;151.182;2023-02-01T03:12:03;3.53;;;1.20;;
20802;SDS011;10562;-33.856;151.182;2023-02-01T03:14:54;6.28;;;1.23;;
20802;SDS011;10562;-33.856;151.182;2023-02-01T03:17:31;3.13;;;1.20;;
20802;SDS011;10562;-33.856;151.182;2023-02-01T03:20:08;3.20;;;1.25;;
20802;SDS011;10562;-33.856;151.182;2023-02-01T03:22:42;8.20;;;1.17;;
20802;SDS011;10562;-33.856;151.182;2023-02-01T03:25:16;4.15;;;1.02;;
20802;SDS011;10562;-33.856;151.182;2023-02-01T03:27:52;5.72;;;1.30;;
20802;SDS011;10562;-33.856;151.182;2023-02-01T03:30:27;3.67;;;1.10;;
20802;SDS011;10562;-33.856;151.182;2023-02-01T03:33:00;6.72;;;1.20;;
20802;SDS011;10562;-33.856;151.182;2023-02-01T03:35:40;6.05;;;1.27;;
20802;SDS011;10562;-33.856;151.182;2023-02-01T03:38:17;5.00;;;1.52;;
20802;SDS011;10562;-33.856;151.182;2023-02-01T03:40:52;5.32;;;1.33;;
20802;SDS011;10562;-33.856;151.182;2023-02-01T03:43:26;5.60;;;1.10;;
20802;SDS011;10562;-33.856;151.182;2023-02-01T03:46:03;5.88;;;1.20;;
20802;SDS011;10562;-33.856;151.182;2023-02-01T03:48:38;4.63;;;1.20;;
20802;SDS011;10562;-33.856;151.182;2023-02-01T03:51:10;4.32;;;1.35;;
20802;SDS011;10562;-33.856;151.182;2023-02-01T03:53:43;3.22;;;1.00;;
20802;SDS011;10562;-33.856;151.182;2023-02-01T03:56:16;5.32;;;1.25;;
20802;SDS011;10562;-33.856;151.182;2023-02-01T03:58:50;3.45;;;1.20;;
20802;SDS011;10562;-33.856;151.182;2023-02-01T04:01:30;3.25;;;1.13;;
20802;SDS011;10562;-33.856;151.182;2023-02-01T04:04:01;6.25;;;1.20;;
20802;SDS011;10562;-33.856;151.182;2023-02-01T04:06:32;4.15;;;1.30;;
20802;SDS011;10562;-33.856;151.182;2023-02-01T04:09:05;5.80;;;1.30;;
20802;SDS011;10562;-33.856;151.182;2023-02-01T04:11:36;3.90;;;1.20;;
20802;SDS011;10562;-33.856;151.182;2023-02-01T04:14:06;3.58;;;0.90;;
20802;SDS011;10562;-33.856;151.182;2023-02-01T04:16:37;6.40;;;1.40;;
20802;SDS011;10562;-33.856;151.182;2023-02-01T04:19:08;2.55;;;0.95;;
20802;SDS011;10562;-33.856;151.182;2023-02-01T04:21:39;3.65;;;1.25;;
20802;SDS011;10562;-33.856;151.182;2023-02-01T04:24:11;3.58;;;1.08;;
20802;SDS011;10562;-33.856;151.182;2023-02-01T04:26:42;7.97;;;1.40;;
20802;SDS011;10562;-33.856;151.182;2023-02-01T04:29:13;4.95;;;1.20;;
20802;SDS011;10562;-33.856;151.182;2023-02-01T04:31:44;4.55;;;1.10;;
20802;SDS011;10562;-33.856;151.182;2023-02-01T04:34:15;4.28;;;1.10;;
20802;SDS011;10562;-33.856;151.182;2023-02-01T04:36:46;6.15;;;1.20;;
20802;SDS011;10562;-33.856;151.182;2023-02-01T04:39:18;4.57;;;1.10;;
20802;SDS011;10562;-33.856;151.182;2023-02-01T04:41:49;6.18;;;1.35;;
20802;SDS011;10562;-33.856;151.182;2023-02-01T04:44:20;2.72;;;1.02;;
20802;SDS011;10562;-33.856;151.182;2023-02-01T04:46:51;6.18;;;1.23;;
20802;SDS011;10562;-33.856;151.182;2023-02-01T04:49:22;3.88;;;1.00;;
20802;SDS011;10562;-33.856;151.182;2023-02-01T04:51:53;3.20;;;1.00;;
20802;SDS011;10562;-33.856;151.182;2023-02-01T04:54:26;4.95;;;1.40;;
20802;SDS011;10562;-33.856;151.182;2023-02-01T04:56:57;4.63;;;1.30;;
20802;SDS011;10562;-33.856;151.182;2023-02-01T04:59:27;4.22;;;1.25;;
20802;SDS011;10562;-33.856;151.182;2023-02-01T05:01:58;4.22;;;1.00;;
20802;SDS011;10562;-33.856;151.182;2023-02-01T05:04:29;5.18;;;1.10;;
20802;SDS011;10562;-33.856;151.182;2023-02-01T05:07:00;7.18;;;1.50;;
20802;SDS011;10562;-33.856;151.182;2023-02-01T05:09:32;4.00;;;1.25;;
20802;SDS011;10562;-33.856;151.182;2023-02-01T05:12:03;7.40;;;1.27;;
20802;SDS011;10562;-33.856;151.182;2023-02-01T05:14:50;5.93;;;1.20;;
20802;SDS011;10562;-33.856;151.182;2023-02-01T05:17:21;4.28;;;1.02;;
20802;SDS011;10562;-33.856;151.182;2023-02-01T05:19:52;4.43;;;1.23;;
20802;SDS011;10562;-33.856;151.182;2023-02-01T05:22:23;6.32;;;1.10;;
20802;SDS011;10562;-33.856;151.182;2023-02-01T05:24:55;5.60;;;1.33;;
20802;SDS011;10562;-33.856;151.182;2023-02-01T05:27:26;4.10;;;1.50;;
20802;SDS011;10562;-33.856;151.182;2023-02-01T05:29:59;8.82;;;1.77;;
20802;SDS011;10562;-33.856;151.182;2023-02-01T05:32:30;3.92;;;1.30;;
20802;SDS011;10562;-33.856;151.182;2023-02-01T05:35:01;5.18;;;1.10;;
20802;SDS011;10562;-33.856;151.182;2023-02-01T05:37:32;5.93;;;1.30;;
20802;SDS011;10562;-33.856;151.182;2023-02-01T05:40:05;7.30;;;1.50;;
20802;SDS011;10562;-33.856;151.182;2023-02-01T05:42:37;3.75;;;1.00;;
20802;SDS011;10562;-33.856;151.182;2023-02-01T05:45:08;3.47;;;1.33;;
20802;SDS011;10562;-33.856;151.182;2023-02-01T05:47:39;3.72;;;1.30;;
20802;SDS011;10562;-33.856;151.182;2023-02-01T05:50:10;6.60;;;1.25;;
20802;SDS011;10562;-33.856;151.182;2023-02-01T05:52:40;4.10;;;1.27;;
20802;SDS011;10562;-33.856;151.182;2023-02-01T05:55:13;5.07;;;1.20;;
20802;SDS011;10562;-33.856;151.182;2023-02-01T05:57:44;4.80;;;1.40;;
20802;SDS011;10562;-33.856;151.182;2023-02-01T06:00:14;5.13;;;1.30;;
20802;SDS011;10562;-33.856;151.182;2023-02-01T06:02:46;5.93;;;1.40;;
20802;SDS011;10562;-33.856;151.182;2023-02-01T06:05:16;5.85;;;1.38;;
20802;SDS011;10562;-33.856;151.182;2023-02-01T06:07:47;4.50;;;1.20;;
20802;SDS011;10562;-33.856;151.182;2023-02-01T06:10:20;6.80;;;1.40;;
20802;SDS011;10562;-33.856;151.182;2023-02-01T06:12:51;6.63;;;1.38;;
20802;SDS011;10562;-33.856;151.182;2023-02-01T06:15:22;3.78;;;1.27;;
20802;SDS011;10562;-33.856;151.182;2023-02-01T06:17:53;5.13;;;1.30;;
20802;SDS011;10562;-33.856;151.182;2023-02-01T06:20:24;4.97;;;1.40;;
20802;SDS011;10562;-33.856;151.182;2023-02-01T06:22:54;6.18;;;1.75;;
20802;SDS011;10562;-33.856;151.182;2023-02-01T06:25:27;4.28;;;1.50;;
20802;SDS011;10562;-33.856;151.182;2023-02-01T06:28:00;6.28;;;1.73;;
20802;SDS011;10562;-33.856;151.182;2023-02-01T06:30:31;5.55;;;1.90;;
20802;SDS011;10562;-33.856;151.182;2023-02-01T06:33:02;6.15;;;1.33;;
20802;SDS011;10562;-33.856;151.182;2023-02-01T06:35:33;4.25;;;1.23;;
20802;SDS011;10562;-33.856;151.182;2023-02-01T06:38:04;5.22;;;1.75;;
20802;SDS011;10562;-33.856;151.182;2023-02-01T06:40:37;5.70;;;1.45;;
20802;SDS011;10562;-33.856;151.182;2023-02-01T06:43:09;6.75;;;1.80;;
20802;SDS011;10562;-33.856;151.182;2023-02-01T06:45:39;4.93;;;1.60;;
20802;SDS011;10562;-33.856;151.182;2023-02-01T06:48:10;8.77;;;1.60;;
20802;SDS011;10562;-33.856;151.182;2023-02-01T06:50:41;8.50;;;1.88;;
20802;SDS011;10562;-33.856;151.182;2023-02-01T06:53:12;4.53;;;1.70;;
20802;SDS011;10562;-33.856;151.182;2023-02-01T06:55:48;7.03;;;1.50;;
20802;SDS011;10562;-33.856;151.182;2023-02-01T06:58:22;6.60;;;2.53;;
20802;SDS011;10562;-33.856;151.182;2023-02-01T07:00:53;8.90;;;4.60;;
20802;SDS011;10562;-33.856;151.182;2023-02-01T07:03:23;3.00;;;1.65;;
20802;SDS011;10562;-33.856;151.182;2023-02-01T07:05:55;8.27;;;1.70;;
20802;SDS011;10562;-33.856;151.182;2023-02-01T07:08:27;6.78;;;1.80;;
20802;SDS011;10562;-33.856;151.182;2023-02-01T07:11:03;6.57;;;1.95;;
20802;SDS011;10562;-33.856;151.182;2023-02-01T07:13:34;6.30;;;2.08;;
20802;SDS011;10562;-33.856;151.182;2023-02-01T07:16:06;9.35;;;1.63;;
20802;SDS011;10562;-33.856;151.182;2023-02-01T07:18:39;4.40;;;2.10;;
20802;SDS011;10562;-33.856;151.182;2023-02-01T07:21:09;6.10;;;1.95;;
20802;SDS011;10562;-33.856;151.182;2023-02-01T07:23:40;11.20;;;2.20;;
20802;SDS011;10562;-33.856;151.182;2023-02-01T07:26:13;6.60;;;2.65;;
20802;SDS011;10562;-33.856;151.182;2023-02-01T07:28:44;5.25;;;1.77;;
20802;SDS011;10562;-33.856;151.182;2023-02-01T07:31:15;4.00;;;1.58;;
20802;SDS011;10562;-33.856;151.182;2023-02-01T07:33:47;8.30;;;1.75;;
20802;SDS011;10562;-33.856;151.182;2023-02-01T07:36:19;5.35;;;1.60;;
20802;SDS011;10562;-33.856;151.182;2023-02-01T07:38:50;5.93;;;1.80;;
20802;SDS011;10562;-33.856;151.182;2023-02-01T07:41:23;5.97;;;1.88;;
20802;SDS011;10562;-33.856;151.182;2023-02-01T07:43:54;4.43;;;1.67;;
20802;SDS011;10562;-33.856;151.182;2023-02-01T07:46:24;10.35;;;2.40;;
20802;SDS011;10562;-33.856;151.182;2023-02-01T07:48:55;15.23;;;3.22;;
20802;SDS011;10562;-33.856;151.182;2023-02-01T07:51:26;7.90;;;2.00;;
20802;SDS011;10562;-33.856;151.182;2023-02-01T07:53:57;6.20;;;1.90;;
20802;SDS011;10562;-33.856;151.182;2023-02-01T07:56:30;4.85;;;1.80;;
20802;SDS011;10562;-33.856;151.182;2023-02-01T07:59:00;6.60;;;1.90;;
20802;SDS011;10562;-33.856;151.182;2023-02-01T08:01:32;5.45;;;1.70;;
20802;SDS011;10562;-33.856;151.182;2023-02-01T08:04:03;6.15;;;1.80;;
20802;SDS011;10562;-33.856;151.182;2023-02-01T08:06:34;6.10;;;1.60;;
20802;SDS011;10562;-33.856;151.182;2023-02-01T08:09:05;4.60;;;1.50;;
20802;SDS011;10562;-33.856;151.182;2023-02-01T08:11:39;5.68;;;1.52;;
20802;SDS011;10562;-33.856;151.182;2023-02-01T08:14:09;7.13;;;1.50;;
20802;SDS011;10562;-33.856;151.182;2023-02-01T08:16:40;5.28;;;1.83;;
20802;SDS011;10562;-33.856;151.182;2023-02-01T08:19:11;6.82;;;1.60;;
20802;SDS011;10562;-33.856;151.182;2023-02-01T08:21:41;6.18;;;1.80;;
20802;SDS011;10562;-33.856;151.182;2023-02-01T08:24:14;8.98;;;1.70;;
20802;SDS011;10562;-33.856;151.182;2023-02-01T08:26:47;7.88;;;1.55;;
20802;SDS011;10562;-33.856;151.182;2023-02-01T08:29:18;7.47;;;1.77;;
20802;SDS011;10562;-33.856;151.182;2023-02-01T08:31:48;6.65;;;1.75;;
20802;SDS011;10562;-33.856;151.182;2023-02-01T08:34:20;7.72;;;1.83;;
20802;SDS011;10562;-33.856;151.182;2023-02-01T08:36:52;5.25;;;1.58;;
20802;SDS011;10562;-33.856;151.182;2023-02-01T08:39:28;3.78;;;1.58;;
20802;SDS011;10562;-33.856;151.182;2023-02-01T08:42:01;6.75;;;1.60;;
20802;SDS011;10562;-33.856;151.182;2023-02-01T08:44:47;6.18;;;1.70;;
20802;SDS011;10562;-33.856;151.182;2023-02-01T08:47:18;5.85;;;1.92;;
20802;SDS011;10562;-33.856;151.182;2023-02-01T08:49:49;10.57;;;2.05;;
20802;SDS011;10562;-33.856;151.182;2023-02-01T08:52:20;4.85;;;1.60;;
20802;SDS011;10562;-33.856;151.182;2023-02-01T08:54:50;11.63;;;2.70;;
20802;SDS011;10562;-33.856;151.182;2023-02-01T08:57:23;7.13;;;1.95;;
20802;SDS011;10562;-33.856;151.182;2023-02-01T08:59:54;6.35;;;2.25;;
20802;SDS011;10562;-33.856;151.182;2023-02-01T09:02:25;14.68;;;2.67;;
20802;SDS011;10562;-33.856;151.182;2023-02-01T09:04:56;5.47;;;2.33;;
20802;SDS011;10562;-33.856;151.182;2023-02-01T09:07:27;6.95;;;2.55;;
20802;SDS011;10562;-33.856;151.182;2023-02-01T09:09:57;8.40;;;2.55;;
20802;SDS011;10562;-33.856;151.182;2023-02-01T09:12:31;8.20;;;2.80;;
20802;SDS011;10562;-33.856;151.182;2023-02-01T09:15:02;11.75;;;4.13;;
20802;SDS011;10562;-33.856;151.182;2023-02-01T09:17:34;11.00;;;3.05;;
20802;SDS011;10562;-33.856;151.182;2023-02-01T09:20:05;8.18;;;2.70;;
20802;SDS011;10562;-33.856;151.182;2023-02-01T09:22:38;7.57;;;2.63;;
20802;SDS011;10562;-33.856;151.182;2023-02-01T09:25:09;8.45;;;2.67;;
20802;SDS011;10562;-33.856;151.182;2023-02-01T09:27:41;6.03;;;2.33;;
20802;SDS011;10562;-33.856;151.182;2023-02-01T09:30:12;8.55;;;2.00;;
20802;SDS011;10562;-33.856;151.182;2023-02-01T09:32:43;8.23;;;1.65;;
20802;SDS011;10562;-33.856;151.182;2023-02-01T09:35:14;9.80;;;1.95;;
20802;SDS011;10562;-33.856;151.182;2023-02-01T09:37:45;12.30;;;2.30;;
20802;SDS011;10562;-33.856;151.182;2023-02-01T09:40:15;7.60;;;2.40;;
20802;SDS011;10562;-33.856;151.182;2023-02-01T09:42:52;13.95;;;3.05;;
20802;SDS011;10562;-33.856;151.182;2023-02-01T09:45:36;8.75;;;2.58;;
20802;SDS011;10562;-33.856;151.182;2023-02-01T09:48:19;7.72;;;2.50;;
20802;SDS011;10562;-33.856;151.182;2023-02-01T09:50:56;5.88;;;2.45;;
20802;SDS011;10562;-33.856;151.182;2023-02-01T09:53:29;11.13;;;2.95;;
20802;SDS011;10562;-33.856;151.182;2023-02-01T09:56:04;7.65;;;2.30;;
20802;SDS011;10562;-33.856;151.182;2023-02-01T09:58:38;9.40;;;2.58;;
20802;SDS011;10562;-33.856;151.182;2023-02-01T10:01:13;5.95;;;2.42;;
20802;SDS011;10562;-33.856;151.182;2023-02-01T10:03:48;11.05;;;2.42;;
20802;SDS011;10562;-33.856;151.182;2023-02-01T10:06:24;7.97;;;2.25;;
20802;SDS011;10562;-33.856;151.182;2023-02-01T10:09:08;6.10;;;2.40;;
20802;SDS011;10562;-33.856;151.182;2023-02-01T10:15:05;6.43;;;2.33;;
20802;SDS011;10562;-33.856;151.182;2023-02-01T10:18:17;10.30;;;2.97;;
20802;SDS011;10562;-33.856;151.182;2023-02-01T10:21:09;8.77;;;3.15;;
20802;SDS011;10562;-33.856;151.182;2023-02-01T10:24:01;7.43;;;3.13;;
20802;SDS011;10562;-33.856;151.182;2023-02-01T10:26:42;11.30;;;3.58;;
20802;SDS011;10562;-33.856;151.182;2023-02-01T10:29:15;10.38;;;4.55;;
20802;SDS011;10562;-33.856;151.182;2023-02-01T10:31:50;10.25;;;3.13;;
20802;SDS011;10562;-33.856;151.182;2023-02-01T10:34:21;8.65;;;2.50;;
20802;SDS011;10562;-33.856;151.182;2023-02-01T10:36:55;11.88;;;2.88;;
20802;SDS011;10562;-33.856;151.182;2023-02-01T10:39:29;8.15;;;2.53;;
20802;SDS011;10562;-33.856;151.182;2023-02-01T10:42:00;7.97;;;2.80;;
20802;SDS011;10562;-33.856;151.182;2023-02-01T10:44:30;7.00;;;3.05;;
20802;SDS011;10562;-33.856;151.182;2023-02-01T10:47:08;7.15;;;2.97;;
20802;SDS011;10562;-33.856;151.182;2023-02-01T10:49:41;8.45;;;3.20;;
20802;SDS011;10562;-33.856;151.182;2023-02-01T10:52:19;6.13;;;3.22;;
20802;SDS011;10562;-33.856;151.182;2023-02-01T10:54:57;7.10;;;3.55;;
20802;SDS011;10562;-33.856;151.182;2023-02-01T10:57:59;9.13;;;3.60;;
20802;SDS011;10562;-33.856;151.182;2023-02-01T11:00:34;7.35;;;3.15;;
20802;SDS011;10562;-33.856;151.182;2023-02-01T11:06:17;7.88;;;2.67;;
20802;SDS011;10562;-33.856;151.182;2023-02-01T11:08:55;9.95;;;2.85;;
20802;SDS011;10562;-33.856;151.182;2023-02-01T11:11:28;7.80;;;2.53;;
20802;SDS011;10562;-33.856;151.182;2023-02-01T11:13:59;10.18;;;2.78;;
20802;SDS011;10562;-33.856;151.182;2023-02-01T11:16:39;7.13;;;2.67;;
20802;SDS011;10562;-33.856;151.182;2023-02-01T11:19:17;7.60;;;2.88;;
20802;SDS011;10562;-33.856;151.182;2023-02-01T11:21:49;10.93;;;3.50;;
20802;SDS011;10562;-33.856;151.182;2023-02-01T11:24:22;6.85;;;3.33;;
20802;SDS011;10562;-33.856;151.182;2023-02-01T11:26:54;6.18;;;2.75;;
20802;SDS011;10562;-33.856;151.182;2023-02-01T11:29:26;11.25;;;3.28;;
20802;SDS011;10562;-33.856;151.182;2023-02-01T11:32:04;7.97;;;2.78;;
20802;SDS011;10562;-33.856;151.182;2023-02-01T11:34:38;9.50;;;2.75;;
20802;SDS011;10562;-33.856;151.182;2023-02-01T11:37:13;6.95;;;2.50;;
20802;SDS011;10562;-33.856;151.182;2023-02-01T11:39:53;8.98;;;2.80;;
20802;SDS011;10562;-33.856;151.182;2023-02-01T11:42:24;8.27;;;2.85;;
20802;SDS011;10562;-33.856;151.182;2023-02-01T11:47:52;8.43;;;3.05;;
20802;SDS011;10562;-33.856;151.182;2023-02-01T11:50:28;9.35;;;2.97;;
20802;SDS011;10562;-33.856;151.182;2023-02-01T11:53:17;10.02;;;3.10;;
20802;SDS011;10562;-33.856;151.182;2023-02-01T11:56:05;7.07;;;3.13;;
20802;SDS011;10562;-33.856;151.182;2023-02-01T12:01:48;10.82;;;2.90;;
20802;SDS011;10562;-33.856;151.182;2023-02-01T12:10:34;6.20;;;2.72;;
20802;SDS011;10562;-33.856;151.182;2023-02-01T12:13:19;6.75;;;2.40;;
20802;SDS011;10562;-33.856;151.182;2023-02-01T12:16:05;7.43;;;2.58;;
20802;SDS011;10562;-33.856;151.182;2023-02-01T12:21:58;8.77;;;2.40;;
20802;SDS011;10562;-33.856;151.182;2023-02-01T12:24:45;10.27;;;2.47;;
20802;SDS011;10562;-33.856;151.182;2023-02-01T12:27:35;8.27;;;3.03;;
20802;SDS011;10562;-33.856;151.182;2023-02-01T12:33:21;8.70;;;3.58;;
20802;SDS011;10562;-33.856;151.182;2023-02-01T12:36:05;8.70;;;3.38;;
20802;SDS011;10562;-33.856;151.182;2023-02-01T12:38:44;10.82;;;3.28;;
20802;SDS011;10562;-33.856;151.182;2023-02-01T12:41:33;10.52;;;3.70;;
20802;SDS011;10562;-33.856;151.182;2023-02-01T12:44:17;14.50;;;4.07;;
20802;SDS011;10562;-33.856;151.182;2023-02-01T12:46:56;9.65;;;3.72;;
20802;SDS011;10562;-33.856;151.182;2023-02-01T12:49:31;13.32;;;4.20;;
20802;SDS011;10562;-33.856;151.182;2023-02-01T12:52:11;11.68;;;4.07;;
20802;SDS011;10562;-33.856;151.182;2023-02-01T12:54:46;11.50;;;3.75;;
20802;SDS011;10562;-33.856;151.182;2023-02-01T12:57:26;9.68;;;3.70;;
20802;SDS011;10562;-33.856;151.182;2023-02-01T13:00:01;8.80;;;3.60;;
20802;SDS011;10562;-33.856;151.182;2023-02-01T13:02:39;8.77;;;3.63;;
20802;SDS011;10562;-33.856;151.182;2023-02-01T13:05:15;9.20;;;3.08;;
20802;SDS011;10562;-33.856;151.182;2023-02-01T13:07:49;6.82;;;2.70;;
20802;SDS011;10562;-33.856;151.182;2023-02-01T13:10:24;11.18;;;3.15;;
20802;SDS011;10562;-33.856;151.182;2023-02-01T13:13:07;8.05;;;2.63;;
20802;SDS011;10562;-33.856;151.182;2023-02-01T13:15:44;10.32;;;2.58;;
20802;SDS011;10562;-33.856;151.182;2023-02-01T13:18:18;7.35;;;2.53;;
20802;SDS011;10562;-33.856;151.182;2023-02-01T13:20:54;11.27;;;2.58;;
20802;SDS011;10562;-33.856;151.182;2023-02-01T13:23:30;7.47;;;2.58;;
20802;SDS011;10562;-33.856;151.182;2023-02-01T13:26:03;7.82;;;2.47;;
20802;SDS011;10562;-33.856;151.182;2023-02-01T13:28:39;7.20;;;2.80;;
20802;SDS011;10562;-33.856;151.182;2023-02-01T13:31:40;9.88;;;3.30;;
20802;SDS011;10562;-33.856;151.182;2023-02-01T13:34:44;13.63;;;3.40;;
20802;SDS011;10562;-33.856;151.182;2023-02-01T13:37:51;9.38;;;3.10;;
20802;SDS011;10562;-33.856;151.182;2023-02-01T13:40:52;11.38;;;3.30;;
20802;SDS011;10562;-33.856;151.182;2023-02-01T13:43:40;10.07;;;3.22;;
20802;SDS011;10562;-33.856;151.182;2023-02-01T13:46:14;8.63;;;3.60;;
20802;SDS011;10562;-33.856;151.182;2023-02-01T13:48:46;6.55;;;3.17;;
20802;SDS011;10562;-33.856;151.182;2023-02-01T13:51:28;7.88;;;3.20;;
20802;SDS011;10562;-33.856;151.182;2023-02-01T13:54:03;7.47;;;2.53;;
20802;SDS011;10562;-33.856;151.182;2023-02-01T13:56:41;8.07;;;2.60;;
20802;SDS011;10562;-33.856;151.182;2023-02-01T14:02:42;9.07;;;2.83;;
20802;SDS011;10562;-33.856;151.182;2023-02-01T14:08:40;6.78;;;2.60;;
20802;SDS011;10562;-33.856;151.182;2023-02-01T14:23:28;9.68;;;2.78;;
20802;SDS011;10562;-33.856;151.182;2023-02-01T14:26:05;7.65;;;2.72;;
20802;SDS011;10562;-33.856;151.182;2023-02-01T14:28:55;8.43;;;2.40;;
20802;SDS011;10562;-33.856;151.182;2023-02-01T14:31:33;9.98;;;2.70;;
20802;SDS011;10562;-33.856;151.182;2023-02-01T14:34:18;7.18;;;2.13;;
20802;SDS011;10562;-33.856;151.182;2023-02-01T14:36:54;7.40;;;2.63;;
20802;SDS011;10562;-33.856;151.182;2023-02-01T14:39:31;6.45;;;2.30;;
20802;SDS011;10562;-33.856;151.182;2023-02-01T14:42:20;4.22;;;2.30;;
20802;SDS011;10562;-33.856;151.182;2023-02-01T14:44:54;4.85;;;1.90;;
20802;SDS011;10562;-33.856;151.182;2023-02-01T14:47:45;8.85;;;2.15;;
20802;SDS011;10562;-33.856;151.182;2023-02-01T14:56:04;9.00;;;2.35;;
20802;SDS011;10562;-33.856;151.182;2023-02-01T14:58:40;7.38;;;2.20;;
20802;SDS011;10562;-33.856;151.182;2023-02-01T15:01:16;7.28;;;2.10;;
20802;SDS011;10562;-33.856;151.182;2023-02-01T15:03:54;8.75;;;2.13;;
20802;SDS011;10562;-33.856;151.182;2023-02-01T15:06:32;5.72;;;2.10;;
20802;SDS011;10562;-33.856;151.182;2023-02-01T15:09:08;3.50;;;1.90;;
20802;SDS011;10562;-33.856;151.182;2023-02-01T15:11:59;5.72;;;2.10;;
20802;SDS011;10562;-33.856;151.182;2023-02-01T15:14:32;6.30;;;2.15;;
20802;SDS011;10562;-33.856;151.182;2023-02-01T15:17:15;5.90;;;2.00;;
20802;SDS011;10562;-33.856;151.182;2023-02-01T15:19:55;9.52;;;2.03;;
20802;SDS011;10562;-33.856;151.182;2023-02-01T15:22:28;7.88;;;2.20;;
20802;SDS011;10562;-33.856;151.182;2023-02-01T15:24:59;5.68;;;1.85;;
20802;SDS011;10562;-33.856;151.182;2023-02-01T15:27:32;5.68;;;1.90;;
20802;SDS011;10562;-33.856;151.182;2023-02-01T15:30:07;4.43;;;1.92;;
20802;SDS011;10562;-33.856;151.182;2023-02-01T15:32:45;8.18;;;2.00;;
20802;SDS011;10562;-33.856;151.182;2023-02-01T15:35:38;4.68;;;2.00;;
20802;SDS011;10562;-33.856;151.182;2023-02-01T15:38:20;4.25;;;1.80;;
20802;SDS011;10562;-33.856;151.182;2023-02-01T15:41:05;4.90;;;2.08;;
20802;SDS011;10562;-33.856;151.182;2023-02-01T15:43:42;4.18;;;2.10;;
20802;SDS011;10562;-33.856;151.182;2023-02-01T15:46:23;6.00;;;2.10;;
20802;SDS011;10562;-33.856;151.182;2023-02-01T15:49:02;7.10;;;2.20;;
20802;SDS011;10562;-33.856;151.182;2023-02-01T15:51:34;5.10;;;1.90;;